sensor_id;sensor_type;location;lat;lon;timestamp;temperature;humidity
17619;DHT22;8928;51.678;6.074;2024-02-21T06:14:58;7.80;99.90
17619;DHT22;8928;51.678;6.074;2024-02-21T06:18:00;7.80;99.90
17619;DHT22;8928;51.678;6.074;2024-02-21T09:51:03;10.10;99.90
17619;DHT22;8928;51.678;6.074;2024-02-21T09:53:51;9.90;99.90
17619;DHT22;8928;51.678;6.074;2024-02-21T09:56:39;9.60;99.90
17619;DHT22;8928;51.678;6.074;2024-02-21T09:59:27;9.40;99.90
17619;DHT22;8928;51.678;6.074;2024-02-21T10:02:15;9.20;99.90
17619;DHT22;8928;51.678;6.074;2024-02-21T10:05:03;9.10;99.90
17619;DHT22;8928;51.678;6.074;2024-02-21T10:07:55;9.10;99.90
17619;DHT22;8928;51.678;6.074;2024-02-21T10:10:43;9.20;99.90
17619;DHT22;8928;51.678;6.074;2024-02-21T10:13:30;9.20;99.90
17619;DHT22;8928;51.678;6.074;2024-02-21T10:16:17;9.20;99.90
17619;DHT22;8928;51.678;6.074;2024-02-21T10:19:05;9.30;99.90
17619;DHT22;8928;51.678;6.074;2024-02-21T10:22:00;9.30;99.90
17619;DHT22;8928;51.678;6.074;2024-02-21T10:24:50;9.30;99.90
17619;DHT22;8928;51.678;6.074;2024-02-21T10:27:40;9.30;99.90
17619;DHT22;8928;51.678;6.074;2024-02-21T10:30:28;9.40;99.90
17619;DHT22;8928;51.678;6.074;2024-02-21T10:33:15;9.50;99.90
17619;DHT22;8928;51.678;6.074;2024-02-21T10:36:07;9.60;99.90
17619;DHT22;8928;51.678;6.074;2024-02-21T10:38:55;9.70;99.90
17619;DHT22;8928;51.678;6.074;2024-02-21T10:41:44;9.90;99.90
17619;DHT22;8928;51.678;6.074;2024-02-21T10:44:32;10.00;99.90
17619;DHT22;8928;51.678;6.074;2024-02-21T10:56:15;10.60;99.90
17619;DHT22;8928;51.678;6.074;2024-02-21T10:58:52;10.70;99.90
17619;DHT22;8928;51.678;6.074;2024-02-21T11:01:39;10.90;99.90
17619;DHT22;8928;51.678;6.074;2024-02-21T11:04:27;11.00;99.90
17619;DHT22;8928;51.678;6.074;2024-02-21T11:07:16;11.00;99.90
17619;DHT22;8928;51.678;6.074;2024-02-21T11:10:04;11.00;99.90
17619;DHT22;8928;51.678;6.074;2024-02-21T11:12:53;10.90;99.90
17619;DHT22;8928;51.678;6.074;2024-02-21T11:15:42;10.80;99.90
17619;DHT22;8928;51.678;6.074;2024-02-21T11:18:29;10.80;99.90
17619;DHT22;8928;51.678;6.074;2024-02-21T11:21:16;10.90;99.90
17619;DHT22;8928;51.678;6.074;2024-02-21T11:24:04;10.80;99.90
17619;DHT22;8928;51.678;6.074;2024-02-21T11:26:51;10.80;99.90
17619;DHT22;8928;51.678;6.074;2024-02-21T11:29:43;10.80;99.90
17619;DHT22;8928;51.678;6.074;2024-02-21T11:32:32;11.00;99.90
17619;DHT22;8928;51.678;6.074;2024-02-21T11:35:19;11.00;99.90
17619;DHT22;8928;51.678;6.074;2024-02-21T11:38:11;10.90;99.90
17619;DHT22;8928;51.678;6.074;2024-02-21T11:41:00;10.90;99.90
17619;DHT22;8928;51.678;6.074;2024-02-21T11:43:48;10.90;99.90
17619;DHT22;8928;51.678;6.074;2024-02-21T11:46:36;10.90;99.90
17619;DHT22;8928;51.678;6.074;2024-02-21T11:49:28;10.90;99.90
17619;DHT22;8928;51.678;6.074;2024-02-21T11:52:15;10.90;99.90
17619;DHT22;8928;51.678;6.074;2024-02-21T11:55:06;11.00;99.90
17619;DHT22;8928;51.678;6.074;2024-02-21T11:57:54;11.00;99.90
17619;DHT22;8928;51.678;6.074;2024-02-21T12:00:41;10.90;99.90
17619;DHT22;8928;51.678;6.074;2024-02-21T12:03:28;10.90;99.90
17619;DHT22;8928;51.678;6.074;2024-02-21T12:06:17;10.70;99.90
17619;DHT22;8928;51.678;6.074;2024-02-21T12:09:07;10.60;99.90
17619;DHT22;8928;51.678;6.074;2024-02-21T12:11:58;10.50;99.90
17619;DHT22;8928;51.678;6.074;2024-02-21T12:14:45;10.70;99.90
17619;DHT22;8928;51.678;6.074;2024-02-21T12:17:33;11.10;99.90
17619;DHT22;8928;51.678;6.074;2024-02-21T12:20:21;11.50;99.90
17619;DHT22;8928;51.678;6.074;2024-02-21T12:23:10;11.70;99.90
17619;DHT22;8928;51.678;6.074;2024-02-21T12:25:59;11.70;99.90
17619;DHT22;8928;51.678;6.074;2024-02-21T12:28:46;11.60;99.90
17619;DHT22;8928;51.678;6.074;2024-02-21T12:31:33;11.40;99.90
17619;DHT22;8928;51.678;6.074;2024-02-21T12:34:20;11.20;99.90
17619;DHT22;8928;51.678;6.074;2024-02-21T12:37:10;11.20;99.90
17619;DHT22;8928;51.678;6.074;2024-02-21T12:40:00;11.20;99.90
17619;DHT22;8928;51.678;6.074;2024-02-21T12:42:52;11.50;99.90
17619;DHT22;8928;51.678;6.074;2024-02-21T12:45:39;11.90;99.90
17619;DHT22;8928;51.678;6.074;2024-02-21T12:48:26;12.10;99.90
17619;DHT22;8928;51.678;6.074;2024-02-21T12:51:14;12.30;99.90
17619;DHT22;8928;51.678;6.074;2024-02-21T12:54:06;12.30;99.90
17619;DHT22;8928;51.678;6.074;2024-02-21T12:56:58;12.30;99.90
17619;DHT22;8928;51.678;6.074;2024-02-21T12:59:48;12.20;99.90
17619;DHT22;8928;51.678;6.074;2024-02-21T13:02:36;12.30;99.90
17619;DHT22;8928;51.678;6.074;2024-02-21T13:05:24;12.40;99.90
17619;DHT22;8928;51.678;6.074;2024-02-21T13:08:11;12.60;99.90
17619;DHT22;8928;51.678;6.074;2024-02-21T13:10:58;12.80;99.90
17619;DHT22;8928;51.678;6.074;2024-02-21T13:13:47;12.90;99.90
17619;DHT22;8928;51.678;6.074;2024-02-21T13:16:34;12.90;99.90
17619;DHT22;8928;51.678;6.074;2024-02-21T13:19:25;12.90;99.90
17619;DHT22;8928;51.678;6.074;2024-02-21T13:22:12;12.70;99.90
17619;DHT22;8928;51.678;6.074;2024-02-21T13:24:59;12.60;99.90
17619;DHT22;8928;51.678;6.074;2024-02-21T13:27:46;12.50;99.90
17619;DHT22;8928;51.678;6.074;2024-02-21T13:30:35;12.40;99.90
17619;DHT22;8928;51.678;6.074;2024-02-21T13:33:22;12.40;99.90
17619;DHT22;8928;51.678;6.074;2024-02-21T13:36:09;12.40;99.90
17619;DHT22;8928;51.678;6.074;2024-02-21T13:38:56;12.40;99.90
17619;DHT22;8928;51.678;6.074;2024-02-21T13:41:43;12.50;99.90
17619;DHT22;8928;51.678;6.074;2024-02-21T13:44:30;12.50;99.90
17619;DHT22;8928;51.678;6.074;2024-02-21T13:47:19;12.50;99.90
17619;DHT22;8928;51.678;6.074;2024-02-21T13:50:07;12.60;99.90
17619;DHT22;8928;51.678;6.074;2024-02-21T13:52:56;12.50;99.90
17619;DHT22;8928;51.678;6.074;2024-02-21T13:55:43;12.50;99.90
17619;DHT22;8928;51.678;6.074;2024-02-21T13:58:30;12.40;99.90
17619;DHT22;8928;51.678;6.074;2024-02-21T14:01:17;12.30;99.90
17619;DHT22;8928;51.678;6.074;2024-02-21T14:04:06;12.10;99.90
17619;DHT22;8928;51.678;6.074;2024-02-21T14:06:53;11.90;99.90
17619;DHT22;8928;51.678;6.074;2024-02-21T14:09:40;11.80;99.90
17619;DHT22;8928;51.678;6.074;2024-02-21T14:12:28;11.80;99.90
17619;DHT22;8928;51.678;6.074;2024-02-21T14:15:15;11.70;99.90
17619;DHT22;8928;51.678;6.074;2024-02-21T14:18:03;11.60;99.90
17619;DHT22;8928;51.678;6.074;2024-02-21T14:20:55;11.40;99.90
17619;DHT22;8928;51.678;6.074;2024-02-21T14:23:42;11.50;99.90
17619;DHT22;8928;51.678;6.074;2024-02-21T14:26:30;11.40;99.90
17619;DHT22;8928;51.678;6.074;2024-02-21T14:29:17;11.30;99.90
17619;DHT22;8928;51.678;6.074;2024-02-21T14:32:05;11.20;99.90
17619;DHT22;8928;51.678;6.074;2024-02-21T14:34:53;11.10;99.90
17619;DHT22;8928;51.678;6.074;2024-02-21T14:37:41;11.10;99.90
17619;DHT22;8928;51.678;6.074;2024-02-21T14:40:28;11.00;99.90
17619;DHT22;8928;51.678;6.074;2024-02-21T14:43:16;11.00;99.90
17619;DHT22;8928;51.678;6.074;2024-02-21T14:46:04;11.00;99.90
17619;DHT22;8928;51.678;6.074;2024-02-21T14:48:51;10.90;99.90
17619;DHT22;8928;51.678;6.074;2024-02-21T14:51:39;10.80;99.90
17619;DHT22;8928;51.678;6.074;2024-02-21T14:54:27;10.80;99.90
17619;DHT22;8928;51.678;6.074;2024-02-21T14:57:15;10.80;99.90
17619;DHT22;8928;51.678;6.074;2024-02-21T15:00:02;10.80;99.90
17619;DHT22;8928;51.678;6.074;2024-02-21T15:02:53;10.80;99.90
17619;DHT22;8928;51.678;6.074;2024-02-21T15:05:41;10.80;99.90
17619;DHT22;8928;51.678;6.074;2024-02-21T15:08:28;10.80;99.90
17619;DHT22;8928;51.678;6.074;2024-02-21T15:11:16;10.70;99.90
17619;DHT22;8928;51.678;6.074;2024-02-21T15:14:03;10.70;99.90
17619;DHT22;8928;51.678;6.074;2024-02-21T15:16:51;10.70;99.90
17619;DHT22;8928;51.678;6.074;2024-02-21T15:19:38;10.60;99.90
17619;DHT22;8928;51.678;6.074;2024-02-21T15:22:29;10.60;99.90
17619;DHT22;8928;51.678;6.074;2024-02-21T15:25:16;10.40;99.90
17619;DHT22;8928;51.678;6.074;2024-02-21T15:28:05;10.40;99.90
17619;DHT22;8928;51.678;6.074;2024-02-21T15:30:52;10.30;99.90
17619;DHT22;8928;51.678;6.074;2024-02-21T15:33:39;10.20;99.90
17619;DHT22;8928;51.678;6.074;2024-02-21T15:36:26;10.20;99.90
17619;DHT22;8928;51.678;6.074;2024-02-21T15:39:14;10.10;99.90
17619;DHT22;8928;51.678;6.074;2024-02-21T15:42:02;10.00;99.90
17619;DHT22;8928;51.678;6.074;2024-02-21T15:44:51;9.90;99.90
17619;DHT22;8928;51.678;6.074;2024-02-21T15:47:38;9.80;99.90
17619;DHT22;8928;51.678;6.074;2024-02-21T15:50:26;9.70;99.90
17619;DHT22;8928;51.678;6.074;2024-02-21T15:53:14;9.60;99.90
17619;DHT22;8928;51.678;6.074;2024-02-21T15:56:01;9.50;99.90
17619;DHT22;8928;51.678;6.074;2024-02-21T15:58:49;9.50;99.90
17619;DHT22;8928;51.678;6.074;2024-02-21T16:01:38;9.40;99.90
17619;DHT22;8928;51.678;6.074;2024-02-21T16:04:26;9.30;99.90
17619;DHT22;8928;51.678;6.074;2024-02-21T16:07:14;9.20;99.90
17619;DHT22;8928;51.678;6.074;2024-02-21T16:10:01;9.20;99.90
17619;DHT22;8928;51.678;6.074;2024-02-21T16:12:48;9.10;99.90
17619;DHT22;8928;51.678;6.074;2024-02-21T16:15:36;9.00;99.90
17619;DHT22;8928;51.678;6.074;2024-02-21T16:18:25;8.90;99.90
17619;DHT22;8928;51.678;6.074;2024-02-21T16:21:12;8.80;99.90
17619;DHT22;8928;51.678;6.074;2024-02-21T16:24:00;8.70;99.90
17619;DHT22;8928;51.678;6.074;2024-02-21T16:26:47;8.60;99.90
17619;DHT22;8928;51.678;6.074;2024-02-21T16:29:34;8.50;99.90
17619;DHT22;8928;51.678;6.074;2024-02-21T16:32:21;8.50;99.90
17619;DHT22;8928;51.678;6.074;2024-02-21T16:35:10;8.40;99.90
17619;DHT22;8928;51.678;6.074;2024-02-21T16:37:57;8.40;99.90
17619;DHT22;8928;51.678;6.074;2024-02-21T16:40:44;8.30;99.90
17619;DHT22;8928;51.678;6.074;2024-02-21T16:43:32;8.30;99.90
17619;DHT22;8928;51.678;6.074;2024-02-21T16:46:19;8.20;99.90
17619;DHT22;8928;51.678;6.074;2024-02-21T16:49:06;8.20;99.90
17619;DHT22;8928;51.678;6.074;2024-02-21T16:51:55;8.20;99.90
17619;DHT22;8928;51.678;6.074;2024-02-21T16:54:42;8.20;99.90
17619;DHT22;8928;51.678;6.074;2024-02-21T16:57:29;8.10;99.90
17619;DHT22;8928;51.678;6.074;2024-02-21T17:00:17;8.10;99.90
17619;DHT22;8928;51.678;6.074;2024-02-21T17:03:06;8.00;99.90
17619;DHT22;8928;51.678;6.074;2024-02-21T17:05:53;8.00;99.90
17619;DHT22;8928;51.678;6.074;2024-02-21T17:08:43;8.00;99.90
17619;DHT22;8928;51.678;6.074;2024-02-21T17:11:30;8.00;99.90
17619;DHT22;8928;51.678;6.074;2024-02-21T17:14:17;8.00;99.90
17619;DHT22;8928;51.678;6.074;2024-02-21T17:17:04;8.00;99.90
17619;DHT22;8928;51.678;6.074;2024-02-21T17:19:52;7.90;99.90
17619;DHT22;8928;51.678;6.074;2024-02-21T17:22:39;7.90;99.90
17619;DHT22;8928;51.678;6.074;2024-02-21T17:25:27;7.90;99.90
17619;DHT22;8928;51.678;6.074;2024-02-21T17:28:15;7.90;99.90
17619;DHT22;8928;51.678;6.074;2024-02-21T17:31:02;7.80;99.90
17619;DHT22;8928;51.678;6.074;2024-02-21T17:33:49;7.80;99.90
17619;DHT22;8928;51.678;6.074;2024-02-21T17:36:36;7.80;99.90
17619;DHT22;8928;51.678;6.074;2024-02-21T17:39:23;7.90;99.90
17619;DHT22;8928;51.678;6.074;2024-02-21T17:42:12;7.80;99.90
17619;DHT22;8928;51.678;6.074;2024-02-21T17:44:59;7.80;99.90
17619;DHT22;8928;51.678;6.074;2024-02-21T17:47:46;7.80;99.90
17619;DHT22;8928;51.678;6.074;2024-02-21T17:50:34;7.80;99.90
17619;DHT22;8928;51.678;6.074;2024-02-21T17:53:21;7.80;99.90
17619;DHT22;8928;51.678;6.074;2024-02-21T17:56:08;7.80;99.90
17619;DHT22;8928;51.678;6.074;2024-02-21T17:58:57;7.80;99.90
17619;DHT22;8928;51.678;6.074;2024-02-21T18:01:44;7.80;99.90
17619;DHT22;8928;51.678;6.074;2024-02-21T18:04:31;7.70;99.90
17619;DHT22;8928;51.678;6.074;2024-02-21T18:07:18;7.70;99.90
17619;DHT22;8928;51.678;6.074;2024-02-21T18:10:07;7.80;99.90
17619;DHT22;8928;51.678;6.074;2024-02-21T18:12:54;7.70;99.90
17619;DHT22;8928;51.678;6.074;2024-02-21T18:15:44;7.70;99.90
17619;DHT22;8928;51.678;6.074;2024-02-21T18:18:31;7.70;99.90
17619;DHT22;8928;51.678;6.074;2024-02-21T18:21:18;7.70;99.90
17619;DHT22;8928;51.678;6.074;2024-02-21T18:24:06;7.70;99.90
17619;DHT22;8928;51.678;6.074;2024-02-21T18:26:53;7.70;99.90
17619;DHT22;8928;51.678;6.074;2024-02-21T18:29:41;7.70;99.90
17619;DHT22;8928;51.678;6.074;2024-02-21T18:32:29;7.70;99.90
17619;DHT22;8928;51.678;6.074;2024-02-21T18:35:17;7.70;99.90
17619;DHT22;8928;51.678;6.074;2024-02-21T18:38:04;7.70;99.90
17619;DHT22;8928;51.678;6.074;2024-02-21T18:40:51;7.70;99.90
17619;DHT22;8928;51.678;6.074;2024-02-21T18:43:39;7.70;99.90
17619;DHT22;8928;51.678;6.074;2024-02-21T18:46:26;7.70;99.90
17619;DHT22;8928;51.678;6.074;2024-02-21T18:49:14;7.70;99.90
17619;DHT22;8928;51.678;6.074;2024-02-21T18:52:01;7.70;99.90
17619;DHT22;8928;51.678;6.074;2024-02-21T18:54:49;7.70;99.90
17619;DHT22;8928;51.678;6.074;2024-02-21T18:57:36;7.70;99.90
17619;DHT22;8928;51.678;6.074;2024-02-21T19:00:23;7.70;99.90
17619;DHT22;8928;51.678;6.074;2024-02-21T19:03:11;7.70;99.90
17619;DHT22;8928;51.678;6.074;2024-02-21T19:06:00;7.70;99.90
17619;DHT22;8928;51.678;6.074;2024-02-21T19:08:47;7.70;99.90
17619;DHT22;8928;51.678;6.074;2024-02-21T19:11:36;7.70;99.90
17619;DHT22;8928;51.678;6.074;2024-02-21T19:14:23;7.70;99.90
17619;DHT22;8928;51.678;6.074;2024-02-21T19:17:10;7.70;99.90
17619;DHT22;8928;51.678;6.074;2024-02-21T19:19:57;7.70;99.90
17619;DHT22;8928;51.678;6.074;2024-02-21T19:22:46;7.70;99.90
17619;DHT22;8928;51.678;6.074;2024-02-21T19:25:33;7.70;99.90
17619;DHT22;8928;51.678;6.074;2024-02-21T19:28:20;7.70;99.90
17619;DHT22;8928;51.678;6.074;2024-02-21T19:31:08;7.80;99.90
17619;DHT22;8928;51.678;6.074;2024-02-21T19:33:55;7.70;99.90
17619;DHT22;8928;51.678;6.074;2024-02-21T19:36:42;7.80;99.90
17619;DHT22;8928;51.678;6.074;2024-02-21T19:39:30;7.80;99.90
17619;DHT22;8928;51.678;6.074;2024-02-21T19:42:18;7.80;99.90
17619;DHT22;8928;51.678;6.074;2024-02-21T19:45:06;7.80;99.90
17619;DHT22;8928;51.678;6.074;2024-02-21T19:47:53;7.80;99.90
17619;DHT22;8928;51.678;6.074;2024-02-21T19:50:41;7.80;99.90
17619;DHT22;8928;51.678;6.074;2024-02-21T19:53:28;7.80;99.90
17619;DHT22;8928;51.678;6.074;2024-02-21T19:56:16;7.90;99.90
17619;DHT22;8928;51.678;6.074;2024-02-21T19:59:03;7.90;99.90
17619;DHT22;8928;51.678;6.074;2024-02-21T20:01:52;7.90;99.90
17619;DHT22;8928;51.678;6.074;2024-02-21T20:04:39;7.90;99.90
17619;DHT22;8928;51.678;6.074;2024-02-21T20:07:26;7.90;99.90
17619;DHT22;8928;51.678;6.074;2024-02-21T20:10:13;7.90;99.90
17619;DHT22;8928;51.678;6.074;2024-02-21T20:13:05;7.90;99.90
17619;DHT22;8928;51.678;6.074;2024-02-21T20:15:52;7.90;99.90
17619;DHT22;8928;51.678;6.074;2024-02-21T20:18:39;7.90;99.90
17619;DHT22;8928;51.678;6.074;2024-02-21T20:21:26;7.90;99.90
17619;DHT22;8928;51.678;6.074;2024-02-21T20:24:13;7.90;99.90
17619;DHT22;8928;51.678;6.074;2024-02-21T20:27:01;7.90;99.90
17619;DHT22;8928;51.678;6.074;2024-02-21T20:29:50;7.90;99.90
17619;DHT22;8928;51.678;6.074;2024-02-21T20:32:38;7.90;99.90
17619;DHT22;8928;51.678;6.074;2024-02-21T20:35:25;7.90;99.90
17619;DHT22;8928;51.678;6.074;2024-02-21T20:38:12;7.90;99.90
17619;DHT22;8928;51.678;6.074;2024-02-21T20:41:00;7.90;99.90
17619;DHT22;8928;51.678;6.074;2024-02-21T20:43:49;7.90;99.90
17619;DHT22;8928;51.678;6.074;2024-02-21T20:46:38;7.90;99.90
17619;DHT22;8928;51.678;6.074;2024-02-21T20:49:25;7.90;99.90
17619;DHT22;8928;51.678;6.074;2024-02-21T20:52:12;8.00;99.90
17619;DHT22;8928;51.678;6.074;2024-02-21T20:55:00;8.00;99.90
17619;DHT22;8928;51.678;6.074;2024-02-21T20:57:47;8.00;99.90
17619;DHT22;8928;51.678;6.074;2024-02-21T21:00:34;8.00;99.90
17619;DHT22;8928;51.678;6.074;2024-02-21T21:03:23;8.00;99.90
17619;DHT22;8928;51.678;6.074;2024-02-21T21:06:10;8.00;99.90
17619;DHT22;8928;51.678;6.074;2024-02-21T21:08:57;8.00;99.90
17619;DHT22;8928;51.678;6.074;2024-02-21T21:11:44;8.00;99.90
17619;DHT22;8928;51.678;6.074;2024-02-21T21:14:32;8.00;99.90
17619;DHT22;8928;51.678;6.074;2024-02-21T21:17:20;8.00;99.90
17619;DHT22;8928;51.678;6.074;2024-02-21T21:20:09;8.00;99.90
17619;DHT22;8928;51.678;6.074;2024-02-21T21:22:57;8.00;99.90
17619;DHT22;8928;51.678;6.074;2024-02-21T21:25:45;8.10;99.90
17619;DHT22;8928;51.678;6.074;2024-02-21T21:28:33;8.10;99.90
17619;DHT22;8928;51.678;6.074;2024-02-21T21:31:20;8.10;99.90
17619;DHT22;8928;51.678;6.074;2024-02-21T21:34:07;8.10;99.90
17619;DHT22;8928;51.678;6.074;2024-02-21T21:36:56;8.20;99.90
17619;DHT22;8928;51.678;6.074;2024-02-21T21:39:43;8.20;99.90
17619;DHT22;8928;51.678;6.074;2024-02-21T21:42:35;8.20;99.90
17619;DHT22;8928;51.678;6.074;2024-02-21T21:45:22;8.20;99.90
17619;DHT22;8928;51.678;6.074;2024-02-21T21:48:10;8.20;99.90
17619;DHT22;8928;51.678;6.074;2024-02-21T21:50:57;8.20;99.90
17619;DHT22;8928;51.678;6.074;2024-02-21T21:53:45;8.20;99.90
17619;DHT22;8928;51.678;6.074;2024-02-21T21:56:32;8.20;99.90
17619;DHT22;8928;51.678;6.074;2024-02-21T21:59:20;8.20;99.90
17619;DHT22;8928;51.678;6.074;2024-02-21T22:02:07;8.20;99.90
17619;DHT22;8928;51.678;6.074;2024-02-21T22:04:54;8.30;99.90
17619;DHT22;8928;51.678;6.074;2024-02-21T22:07:41;8.20;99.90
17619;DHT22;8928;51.678;6.074;2024-02-21T22:10:30;8.30;99.90
17619;DHT22;8928;51.678;6.074;2024-02-21T22:13:17;8.20;99.90
17619;DHT22;8928;51.678;6.074;2024-02-21T22:16:05;8.30;99.90
17619;DHT22;8928;51.678;6.074;2024-02-21T22:18:52;8.30;99.90
17619;DHT22;8928;51.678;6.074;2024-02-21T22:21:39;8.30;99.90
17619;DHT22;8928;51.678;6.074;2024-02-21T22:24:27;8.30;99.90
17619;DHT22;8928;51.678;6.074;2024-02-21T22:27:16;8.30;99.90
17619;DHT22;8928;51.678;6.074;2024-02-21T22:30:05;8.30;99.90
17619;DHT22;8928;51.678;6.074;2024-02-21T22:32:55;8.30;99.90
17619;DHT22;8928;51.678;6.074;2024-02-21T22:43:55;8.40;99.90
17619;DHT22;8928;51.678;6.074;2024-02-21T22:46:45;8.40;99.90
17619;DHT22;8928;51.678;6.074;2024-02-21T22:49:32;8.40;99.90
17619;DHT22;8928;51.678;6.074;2024-02-21T22:52:19;8.40;99.90
17619;DHT22;8928;51.678;6.074;2024-02-21T22:55:07;8.40;99.90
17619;DHT22;8928;51.678;6.074;2024-02-21T22:57:55;8.50;99.90
17619;DHT22;8928;51.678;6.074;2024-02-21T23:00:43;8.40;99.90
17619;DHT22;8928;51.678;6.074;2024-02-21T23:03:31;8.50;99.90
17619;DHT22;8928;51.678;6.074;2024-02-21T23:06:18;8.50;99.90
17619;DHT22;8928;51.678;6.074;2024-02-21T23:09:06;8.50;99.90
17619;DHT22;8928;51.678;6.074;2024-02-21T23:11:54;8.50;99.90
17619;DHT22;8928;51.678;6.074;2024-02-21T23:14:41;8.50;99.90
17619;DHT22;8928;51.678;6.074;2024-02-21T23:17:29;8.50;99.90
17619;DHT22;8928;51.678;6.074;2024-02-21T23:20:16;8.50;99.90
17619;DHT22;8928;51.678;6.074;2024-02-21T23:23:04;8.50;99.90
17619;DHT22;8928;51.678;6.074;2024-02-21T23:25:51;8.60;99.90
17619;DHT22;8928;51.678;6.074;2024-02-21T23:28:41;8.60;99.90
17619;DHT22;8928;51.678;6.074;2024-02-21T23:31:29;8.60;99.90
17619;DHT22;8928;51.678;6.074;2024-02-21T23:34:18;8.60;99.90
17619;DHT22;8928;51.678;6.074;2024-02-21T23:37:05;8.60;99.90
17619;DHT22;8928;51.678;6.074;2024-02-21T23:39:53;8.60;99.90
17619;DHT22;8928;51.678;6.074;2024-02-21T23:42:41;8.60;99.90
17619;DHT22;8928;51.678;6.074;2024-02-21T23:54:39;8.70;99.90
17619;DHT22;8928;51.678;6.074;2024-02-21T23:57:27;8.70;99.90
